createdAt,value
2019-02-12T00:02:25.647Z,101877.74
2019-02-12T00:04:55.740Z,101893.91
2019-02-12T00:07:30.789Z,101900.02
2019-02-12T00:10:04.848Z,101886.02
2019-02-12T00:12:35.997Z,101909.59
2019-02-12T00:15:06.457Z,101911.33
2019-02-12T00:17:38.617Z,101910.47
2019-02-12T00:20:10.003Z,101912.64
2019-02-12T00:22:41.989Z,101914.81
2019-02-12T00:25:11.535Z,101912.19
2019-02-12T00:27:43.595Z,101911.74
2019-02-12T00:30:15.018Z,101911.33
2019-02-12T00:32:44.975Z,101920.94
2019-02-12T00:35:16.577Z,101916.12
2019-02-12T00:37:47.357Z,101911.77
2019-02-12T00:40:19.456Z,101921.39
2019-02-12T00:42:51.272Z,101919.19
2019-02-12T00:45:21.009Z,101919.19
2019-02-12T00:47:51.625Z,101912.64
2019-02-12T00:50:21.753Z,101919.19
2019-02-12T00:52:52.130Z,101916.59
2019-02-12T00:55:22.339Z,101913.97
2019-02-12T00:57:54.889Z,101912.22
2019-02-12T01:00:24.126Z,101922.70
2019-02-12T01:02:54.690Z,101922.25
2019-02-12T01:05:24.872Z,101924.02
2019-02-12T01:07:55.975Z,101924.87
2019-02-12T01:10:26.638Z,101916.59
2019-02-12T01:13:02.323Z,101930.14
2019-02-12T01:15:35.530Z,101929.25
2019-02-12T01:18:05.676Z,101929.69
2019-02-12T01:20:35.466Z,101927.48
2019-02-12T01:23:08.967Z,101937.11
2019-02-12T01:25:41.747Z,101949.34
2019-02-12T01:28:12.378Z,101945.42
2019-02-12T01:30:42.729Z,101937.11
2019-02-12T01:33:14.497Z,101934.94
2019-02-12T01:35:46.141Z,101932.31
2019-02-12T01:38:16.303Z,101926.21
2019-02-12T01:40:46.239Z,101918.32
2019-02-12T01:43:20.534Z,101913.53
2019-02-12T01:45:50.301Z,101913.95
2019-02-12T01:48:19.625Z,101918.77
2019-02-12T01:50:52.676Z,101914.84
2019-02-12T01:53:26.355Z,101917.91
2019-02-12T01:56:00.553Z,101918.33
2019-02-12T01:58:32.351Z,101917.02
2019-02-12T02:01:04.215Z,101917.01
2019-02-12T02:03:39.307Z,101917.04
2019-02-12T02:06:09.495Z,101923.14
2019-02-12T02:08:40.242Z,101925.77
2019-02-12T02:11:11.051Z,101932.32
2019-02-12T02:13:42.345Z,101946.70
2019-02-12T02:16:12.898Z,101939.28
2019-02-12T02:18:44.684Z,101942.77
2019-02-12T02:21:15.725Z,101948.45
2019-02-12T02:23:45.465Z,101945.39
2019-02-12T02:26:15.761Z,101953.25
2019-02-12T02:28:47.755Z,101951.08
2019-02-12T02:31:18.377Z,101953.25
2019-02-12T02:33:48.347Z,101961.52
2019-02-12T02:36:19.248Z,101955.42
2019-02-12T02:38:50.331Z,101952.80
2019-02-12T02:41:22.061Z,101951.04
2019-02-12T02:43:57.374Z,101956.69
2019-02-12T02:46:31.856Z,101955.37
2019-02-12T02:49:04.031Z,101966.30
2019-02-12T02:51:37.561Z,101963.68
2019-02-12T02:54:08.045Z,101968.92
2019-02-12T02:56:41.750Z,101964.99
2019-02-12T02:59:14.109Z,101976.73
2019-02-12T03:01:44.421Z,101981.12
2019-02-12T03:04:13.886Z,101981.57
2019-02-12T03:06:46.245Z,101979.39
2019-02-12T03:09:21.123Z,101981.52
2019-02-12T03:11:51.133Z,101972.81
2019-02-12T03:14:21.964Z,101969.33
2019-02-12T03:16:51.918Z,101970.19
2019-02-12T03:19:22.420Z,101972.84
2019-02-12T03:21:52.262Z,101972.80
2019-02-12T03:24:23.177Z,101984.14
2019-02-12T03:26:52.769Z,101981.11
2019-02-12T03:29:23.254Z,101975.87
2019-02-12T03:31:53.265Z,101987.66
2019-02-12T03:34:25.843Z,101990.69
2019-02-12T03:36:55.437Z,101983.73
2019-02-12T03:39:25.724Z,101981.52
2019-02-12T03:41:55.104Z,101979.75
2019-02-12T03:44:24.943Z,101973.66
2019-02-12T03:46:55.937Z,101982.83
2019-02-12T03:49:26.408Z,101984.58
2019-02-12T03:51:56.728Z,101984.99
2019-02-12T03:54:27.695Z,101991.98
2019-02-12T03:56:57.134Z,102005.08
2019-02-12T03:59:27.710Z,102005.98
2019-02-12T04:01:58.951Z,102007.26
2019-02-12T04:04:28.925Z,102017.78
2019-02-12T04:07:02.783Z,102013.41
2019-02-12T04:09:34.149Z,102008.15
2019-02-12T04:12:04.623Z,102022.56
2019-02-12T04:14:39.279Z,102033.43
2019-02-12T04:17:08.667Z,102035.12
2019-02-12T04:19:38.598Z,102031.14
2019-02-12T04:22:22.347Z,102030.27
2019-02-12T04:24:49.905Z,102031.56
2019-02-12T04:27:24.134Z,102041.59
2019-02-12T04:29:53.321Z,102042.44
2019-02-12T04:32:24.496Z,102039.38
2019-02-12T04:34:54.702Z,102038.06
2019-02-12T04:37:29.472Z,102027.13
2019-02-12T04:39:59.931Z,102034.59
2019-02-12T04:42:29.488Z,102038.50
2019-02-12T04:45:03.946Z,102032.83
2019-02-12T04:47:53.219Z,102043.28
2019-02-12T04:50:22.883Z,102042.88
2019-02-12T04:52:53.364Z,102044.59
2019-02-12T04:55:32.994Z,102044.98
2019-02-12T04:58:05.973Z,102051.05
2019-02-12T05:00:37.125Z,102057.61
2019-02-12T05:03:09.871Z,102049.80
2019-02-12T05:05:39.534Z,102053.30
2019-02-12T05:08:10.254Z,102056.83
2019-02-12T05:10:44.156Z,102058.59
2019-02-12T05:13:13.368Z,102067.31
2019-02-12T05:15:43.144Z,102062.53
2019-02-12T05:18:12.567Z,102063.38
2019-02-12T05:20:46.002Z,102074.22
2019-02-12T05:23:16.166Z,102062.38
2019-02-12T05:25:45.671Z,102063.67
2019-02-12T05:28:54.436Z,102053.58
2019-02-12T05:31:24.129Z,102051.80
2019-02-12T05:33:54.843Z,102063.20
2019-02-12T05:36:25.048Z,102057.11
2019-02-12T05:38:55.757Z,102074.14
2019-02-12T05:41:26.360Z,102074.58
2019-02-12T05:43:55.715Z,102076.23
2019-02-12T05:46:25.062Z,102085.31
2019-02-12T05:48:54.933Z,102086.17
2019-02-12T05:51:27.122Z,102091.77
2019-02-12T05:53:56.812Z,102093.50
2019-02-12T05:56:28.269Z,102100.05
2019-02-12T05:58:58.257Z,102100.05
2019-02-12T06:01:27.713Z,102096.16
2019-02-12T06:03:56.799Z,102102.66
2019-02-12T06:06:26.188Z,102101.73
2019-02-12T06:08:56.712Z,102101.83
2019-02-12T06:11:27.532Z,102099.62
2019-02-12T06:13:58.728Z,102106.62
2019-02-12T06:16:35.360Z,102109.69
2019-02-12T06:19:06.424Z,102115.38
2019-02-12T06:21:35.675Z,102107.91
2019-02-12T06:24:04.978Z,102107.92
2019-02-12T06:26:34.644Z,102121.45
2019-02-12T06:29:05.608Z,102125.29
2019-02-12T06:31:35.628Z,102135.27
2019-02-12T06:34:04.991Z,102136.20
2019-02-12T06:36:33.817Z,102136.58
2019-02-12T06:39:02.709Z,102139.62
2019-02-12T06:41:33.179Z,102138.79
2019-02-12T06:44:02.347Z,102131.41
2019-02-12T06:46:31.656Z,102134.39
2019-02-12T06:49:00.555Z,102130.02
2019-02-12T06:51:29.346Z,102134.39
2019-02-12T06:53:58.693Z,102143.12
2019-02-12T06:56:29.187Z,102139.62
2019-02-12T06:58:58.158Z,102150.11
2019-02-12T07:01:26.999Z,102151.43
2019-02-12T07:04:30.447Z,102150.11
2019-02-12T07:07:56.450Z,102159.75
2019-02-12T07:10:36.190Z,102165.45
2019-02-12T07:13:41.825Z,102163.22
2019-02-12T07:16:42.210Z,102153.23
2019-02-12T07:20:00.234Z,102164.17
2019-02-12T07:23:10.624Z,102168.99
2019-02-12T07:32:04.658Z,102179.54
2019-02-12T07:35:08.296Z,102182.61
2019-02-12T07:38:02.422Z,102187.02
2019-02-12T07:40:50.012Z,102186.29
2019-02-12T07:44:05.704Z,102192.39
2019-02-12T07:46:58.120Z,102199.00
2019-02-12T07:49:47.376Z,102194.23
2019-02-12T07:52:58.583Z,102200.41
2019-02-12T07:56:09.036Z,102209.61
2019-02-12T07:59:24.730Z,102203.50
2019-02-12T08:02:33.779Z,102212.23
2019-02-12T08:05:55.814Z,102217.53
2019-02-12T08:09:33.519Z,102223.67
2019-02-12T08:12:40.792Z,102221.98
2019-02-12T08:15:27.665Z,102225.45
2019-02-12T08:18:14.318Z,102235.99
2019-02-12T08:21:28.576Z,102238.98
2019-02-12T08:24:24.568Z,102251.23
2019-02-12T08:27:19.404Z,102251.72
2019-02-12T08:30:15.073Z,102263.52
2019-02-12T08:33:40.104Z,102267.88
2019-02-12T08:36:17.575Z,102274.02
2019-02-12T08:39:30.190Z,102270.17
2019-02-12T08:42:23.667Z,102282.42
2019-02-12T08:45:46.162Z,102279.41
2019-02-12T08:48:46.024Z,102281.23
2019-02-12T08:51:53.432Z,102289.48
2019-02-12T08:54:59.005Z,102296.01
2019-02-12T08:58:00.456Z,102293.02
2019-02-12T09:00:53.737Z,102292.27
2019-02-12T09:03:54.129Z,102301.82
2019-02-12T09:06:49.026Z,102299.20
2019-02-12T09:09:59.402Z,102291.80
2019-02-12T09:12:56.665Z,102293.67
2019-02-12T09:16:22.268Z,102291.05
2019-02-12T09:19:15.180Z,102293.24
2019-02-12T09:22:29.867Z,102292.47
2019-02-12T09:25:17.818Z,102288.55
2019-02-12T09:28:32.950Z,102291.16
2019-02-12T09:31:28.970Z,102293.41
2019-02-12T09:34:35.216Z,102292.55
2019-02-12T09:37:51.332Z,102301.27
2019-02-12T09:40:56.347Z,102293.92
2019-02-12T09:43:39.834Z,102309.28
2019-02-12T09:46:34.596Z,102312.81
2019-02-12T09:49:38.827Z,102323.76
2019-02-12T09:52:40.490Z,102327.23
2019-02-12T09:55:24.629Z,102320.28
2019-02-12T09:58:25.197Z,102325.93
2019-02-12T10:01:11.154Z,102324.23
2019-02-12T10:04:06.955Z,102332.55
2019-02-12T10:07:29.408Z,102338.15
2019-02-12T10:10:30.619Z,102325.06
2019-02-12T10:13:09.161Z,102335.52
2019-02-12T10:15:56.396Z,102336.83
2019-02-12T10:19:04.592Z,102331.56
2019-02-12T10:22:30.323Z,102336.38
2019-02-12T10:25:11.476Z,102340.30
2019-02-12T10:28:20.546Z,102346.06
2019-02-12T10:31:34.064Z,102356.20
2019-02-12T10:34:02.877Z,102350.53
2019-02-12T10:36:38.593Z,102350.55
2019-02-12T10:39:09.035Z,102348.84
2019-02-12T10:41:37.802Z,102360.70
2019-02-12T10:44:06.614Z,102353.67
2019-02-12T10:46:36.102Z,102358.08
2019-02-12T10:49:12.757Z,102355.86
2019-02-12T10:51:43.447Z,102352.47
2019-02-12T10:54:13.559Z,102347.58
2019-02-12T10:56:42.450Z,102347.63
2019-02-12T10:59:11.125Z,102353.37
2019-02-12T11:01:53.181Z,102341.50
2019-02-12T11:04:22.126Z,102353.33
2019-02-12T11:06:50.791Z,102342.45
2019-02-12T11:09:19.697Z,102345.55
2019-02-12T11:11:48.405Z,102343.41
2019-02-12T11:14:17.293Z,102339.41
2019-02-12T11:16:45.956Z,102342.93
2019-02-12T11:19:16.499Z,102344.69
2019-02-12T11:21:45.253Z,102338.59
2019-02-12T11:24:13.993Z,102344.27
2019-02-12T11:26:43.384Z,102338.14
2019-02-12T11:29:13.635Z,102347.34
2019-02-12T11:31:58.342Z,102344.72
2019-02-12T11:34:28.231Z,102341.64
2019-02-12T11:36:57.532Z,102356.12
2019-02-12T11:39:27.136Z,102357.45
2019-02-12T11:42:06.779Z,102361.38
2019-02-12T11:44:36.512Z,102353.05
2019-02-12T11:47:05.214Z,102357.45
2019-02-12T11:49:33.918Z,102350.44
2019-02-12T11:52:02.719Z,102361.41
2019-02-12T11:54:32.852Z,102354.82
2019-02-12T11:57:01.662Z,102357.89
2019-02-12T11:59:30.442Z,102363.59
2019-02-12T12:01:59.173Z,102355.69
2019-02-12T12:04:27.970Z,102356.16
2019-02-12T12:06:56.832Z,102350.88
2019-02-12T12:09:25.588Z,102363.59
2019-02-12T12:11:54.396Z,102356.59
2019-02-12T12:14:24.252Z,102361.39
2019-02-12T12:16:53.065Z,102361.86
2019-02-12T12:19:23.078Z,102368.42
2019-02-12T12:21:52.499Z,102331.59
2019-02-12T12:24:21.672Z,102364.48
2019-02-12T12:26:50.401Z,102367.98
2019-02-12T12:29:19.169Z,102368.84
2019-02-12T12:31:47.931Z,102364.91
2019-02-12T12:34:19.935Z,102365.79
2019-02-12T12:36:48.790Z,102368.84
2019-02-12T12:39:17.611Z,102366.66
2019-02-12T12:41:46.387Z,102356.57
2019-02-12T12:44:17.641Z,102360.95
2019-02-12T12:46:47.153Z,102364.04
2019-02-12T12:49:16.364Z,102359.63
2019-02-12T12:51:45.161Z,102357.89
2019-02-12T12:54:14.031Z,102344.77
2019-02-12T12:56:43.540Z,102355.69
2019-02-12T12:59:12.311Z,102355.27
2019-02-12T13:01:41.112Z,102354.83
2019-02-12T13:04:11.546Z,102358.34
2019-02-12T13:06:40.928Z,102353.52
2019-02-12T13:09:09.889Z,102353.95
2019-02-12T13:11:38.731Z,102353.97
2019-02-12T13:14:07.454Z,102358.34
2019-02-12T13:16:36.248Z,102358.77
2019-02-12T13:19:04.911Z,102352.19
2019-02-12T13:21:34.620Z,102358.77
2019-02-12T13:24:03.860Z,102355.67
2019-02-12T13:26:33.027Z,102372.35
2019-02-12T13:29:02.138Z,102359.18
2019-02-12T13:31:33.249Z,102368.84
2019-02-12T13:34:03.474Z,102371.05
2019-02-12T13:36:32.272Z,102373.25
2019-02-12T13:39:01.097Z,102377.16
2019-02-12T13:41:32.040Z,102381.56
2019-02-12T13:44:00.954Z,102375.42
2019-02-12T13:46:29.790Z,102379.81
2019-02-12T13:49:01.738Z,102379.37
2019-02-12T13:51:31.311Z,102379.37
2019-02-12T13:54:00.235Z,102374.11
2019-02-12T13:56:32.313Z,102382.03
2019-02-12T13:59:01.100Z,102387.70
2019-02-12T14:01:30.244Z,102389.91
2019-02-12T14:03:59.336Z,102389.90
2019-02-12T14:06:28.034Z,102396.90
2019-02-12T14:08:59.412Z,102396.02
2019-02-12T14:11:28.178Z,102405.24
2019-02-12T14:14:04.467Z,102407.84
2019-02-12T14:16:34.827Z,102413.08
2019-02-12T14:19:03.696Z,102413.53
2019-02-12T14:21:34.208Z,102411.80
2019-02-12T14:24:06.916Z,102407.85
2019-02-12T14:26:56.154Z,102411.38
2019-02-12T14:29:24.805Z,102411.37
2019-02-12T14:31:53.505Z,102414.86
2019-02-12T14:34:22.309Z,102414.86
2019-02-12T14:36:51.015Z,102417.94
2019-02-12T14:39:19.768Z,102422.75
2019-02-12T14:41:48.646Z,102421.89
2019-02-12T14:44:19.346Z,102422.31
2019-02-12T14:46:48.114Z,102421.89
2019-02-12T14:49:17.246Z,102422.34
2019-02-12T14:51:48.214Z,102424.94
2019-02-12T14:54:16.845Z,102425.38
2019-02-12T14:56:45.617Z,102427.59
2019-02-12T14:59:14.315Z,102428.47
2019-02-12T15:01:42.974Z,102421.47
2019-02-12T15:04:11.699Z,102416.19
2019-02-12T15:06:40.693Z,102419.27
2019-02-12T15:09:09.359Z,102407.42
2019-02-12T15:11:38.122Z,102408.73
2019-02-12T15:14:15.161Z,102415.77
2019-02-12T15:16:45.183Z,102414.00
2019-02-12T15:19:13.932Z,102410.96
2019-02-12T15:21:42.746Z,102414.45
2019-02-12T15:24:11.292Z,102411.82
2019-02-12T15:26:39.968Z,102416.65
2019-02-12T15:29:08.649Z,102412.27
2019-02-12T15:31:37.265Z,102413.12
2019-02-12T15:34:06.062Z,102410.49
2019-02-12T15:36:35.315Z,102406.11
2019-02-12T15:39:05.585Z,102399.11
2019-02-12T15:41:34.300Z,102405.66
2019-02-12T15:44:03.413Z,102412.66
2019-02-12T15:46:34.489Z,102417.50
2019-02-12T15:49:03.187Z,102416.63
2019-02-12T15:51:31.916Z,102419.69
2019-02-12T15:54:00.627Z,102412.69
2019-02-12T15:56:29.517Z,102407.41
2019-02-12T15:58:58.415Z,102406.51
2019-02-12T16:01:28.260Z,102412.67
2019-02-12T16:03:58.321Z,102421.41
2019-02-12T16:06:28.300Z,102424.91
2019-02-12T16:08:58.953Z,102428.82
2019-02-12T16:11:33.155Z,102428.82
2019-02-12T16:14:04.103Z,102431.45
2019-02-12T16:16:33.724Z,102429.19
2019-02-12T16:19:06.229Z,102425.25
2019-02-12T16:21:35.190Z,102427.38
2019-02-12T16:24:04.580Z,102427.38
2019-02-12T16:26:35.113Z,102430.82
2019-02-12T16:29:43.244Z,102433.48
2019-02-12T16:32:11.974Z,102440.41
2019-02-12T16:34:40.861Z,102440.41
2019-02-12T16:37:17.911Z,102445.66
2019-02-12T16:39:49.915Z,102452.61
2019-02-12T16:42:20.505Z,102453.47
2019-02-12T16:44:53.111Z,102461.73
2019-02-12T16:47:23.463Z,102452.53
2019-02-12T16:49:52.019Z,102453.40
2019-02-12T16:52:21.286Z,102452.47
2019-02-12T16:54:50.234Z,102462.56
2019-02-12T16:57:21.019Z,102456.41
2019-02-12T16:59:53.330Z,102457.80
2019-02-12T17:02:23.028Z,102456.91
2019-02-12T17:04:51.948Z,102450.30
2019-02-12T17:07:21.094Z,102456.39
2019-02-12T17:09:52.303Z,102456.84
2019-02-12T17:12:20.285Z,102454.62
2019-02-12T17:14:49.145Z,102468.64
2019-02-12T17:17:19.971Z,102472.52
2019-02-12T17:19:50.570Z,102476.88
2019-02-12T17:22:19.298Z,102474.66
2019-02-12T17:24:48.068Z,102475.52
2019-02-12T17:27:18.291Z,102476.38
2019-02-12T17:29:47.212Z,102479.46
2019-02-12T17:32:15.760Z,102476.47
2019-02-12T17:34:46.340Z,102474.75
2019-02-12T17:37:14.907Z,102471.28
2019-02-12T17:39:45.134Z,102479.65
2019-02-12T17:42:14.127Z,102477.53
2019-02-12T17:44:43.079Z,102477.95
2019-02-12T17:47:11.638Z,102477.47
2019-02-12T17:49:40.173Z,102486.59
2019-02-12T17:52:20.698Z,102483.97
2019-02-12T17:54:49.630Z,102487.44
2019-02-12T17:57:19.888Z,102483.48
2019-02-12T17:59:48.474Z,102484.80
2019-02-12T18:02:17.448Z,102486.09
2019-02-12T18:04:46.402Z,102491.33
2019-02-12T18:07:15.310Z,102498.36
2019-02-12T18:09:44.194Z,102490.02
2019-02-12T18:12:13.302Z,102496.98
2019-02-12T18:14:42.263Z,102487.38
2019-02-12T18:17:11.500Z,102498.67
2019-02-12T18:19:44.751Z,102493.47
2019-02-12T18:22:14.965Z,102498.73
2019-02-12T18:24:45.038Z,102490.41
2019-02-12T18:27:15.225Z,102492.59
2019-02-12T18:29:47.240Z,102498.78
2019-02-12T18:32:17.179Z,102497.05
2019-02-12T18:34:45.729Z,102501.39
2019-02-12T18:37:14.697Z,102498.38
2019-02-12T18:39:45.299Z,102491.83
2019-02-12T18:42:16.995Z,102489.64
2019-02-12T18:44:46.405Z,102493.11
2019-02-12T18:47:14.999Z,102483.03
2019-02-12T18:49:43.859Z,102481.30
2019-02-12T18:52:15.864Z,102483.03
2019-02-12T18:54:44.582Z,102480.37
2019-02-12T18:57:13.227Z,102482.51
2019-02-12T18:59:44.086Z,102483.36
2019-02-12T19:02:13.038Z,102479.81
2019-02-12T19:04:41.745Z,102475.03
2019-02-12T19:07:10.348Z,102478.94
2019-02-12T19:09:40.320Z,102482.42
2019-02-12T19:12:11.909Z,102484.19
2019-02-12T19:14:40.845Z,102484.13
2019-02-12T19:17:12.638Z,102488.89
2019-02-12T19:19:44.756Z,102488.87
2019-02-12T19:22:13.370Z,102491.42
2019-02-12T19:24:41.910Z,102497.58
2019-02-12T19:27:12.353Z,102499.30
2019-02-12T19:29:44.648Z,102503.59
2019-02-12T19:32:13.608Z,102507.09
2019-02-12T19:34:43.715Z,102504.40
2019-02-12T19:37:13.003Z,102502.69
2019-02-12T19:39:43.244Z,102509.66
2019-02-12T19:42:12.199Z,102507.87
2019-02-12T19:44:40.765Z,102515.23
2019-02-12T19:47:09.296Z,102508.65
2019-02-12T19:49:38.047Z,102520.81
2019-02-12T19:52:06.635Z,102526.52
2019-02-12T19:54:35.178Z,102524.20
2019-02-12T19:57:05.094Z,102524.94
2019-02-12T19:59:33.641Z,102524.00
2019-02-12T20:02:02.197Z,102524.30
2019-02-12T20:04:30.722Z,102529.88
2019-02-12T20:06:59.860Z,102531.64
2019-02-12T20:09:28.787Z,102539.03
2019-02-12T20:11:57.327Z,102547.27
2019-02-12T20:14:27.988Z,102546.37
2019-02-12T20:16:59.404Z,102534.13
2019-02-12T20:19:30.369Z,102537.92
2019-02-12T20:25:02.460Z,102555.91
2019-02-12T20:27:36.302Z,102549.80
2019-02-12T20:30:06.363Z,102547.71
2019-02-12T20:32:34.908Z,102539.36
2019-02-12T20:35:03.882Z,102547.64
2019-02-12T20:37:34.373Z,102543.20
2019-02-12T20:40:04.999Z,102546.14
2019-02-12T20:42:33.538Z,102542.71
2019-02-12T20:45:09.620Z,102543.97
2019-02-12T20:47:39.787Z,102537.42
2019-02-12T20:50:09.874Z,102535.60
2019-02-12T20:52:38.416Z,102540.33
2019-02-12T20:55:07.753Z,102541.60
2019-02-12T20:57:38.347Z,102539.42
2019-02-12T21:00:09.644Z,102539.92
2019-02-12T21:02:40.313Z,102537.74
2019-02-12T21:05:10.379Z,102541.33
2019-02-12T21:07:40.483Z,102538.29
2019-02-12T21:10:12.576Z,102549.63
2019-02-12T21:12:41.151Z,102544.70
2019-02-12T21:15:13.760Z,102544.67
2019-02-12T21:17:42.385Z,102532.31
2019-02-12T21:20:11.391Z,102528.97
2019-02-12T21:22:40.202Z,102519.48
2019-02-12T21:25:15.384Z,102522.83
2019-02-12T21:27:44.018Z,102521.52
2019-02-12T21:30:14.872Z,102525.84
2019-02-12T21:32:43.417Z,102535.70
2019-02-12T21:35:12.215Z,102529.58
2019-02-12T21:37:41.230Z,102532.91
2019-02-12T21:40:12.997Z,102535.36
2019-02-12T21:42:41.588Z,102541.96
2019-02-12T21:45:10.412Z,102549.11
2019-02-12T21:47:39.137Z,102553.56
2019-02-12T21:50:11.194Z,102554.21
2019-02-12T21:52:39.826Z,102562.89
2019-02-12T21:55:09.441Z,102557.64
2019-02-12T21:57:40.264Z,102561.07
2019-02-12T22:00:11.220Z,102558.39
2019-02-12T22:02:44.533Z,102555.30
2019-02-12T22:05:15.614Z,102560.19
2019-02-12T22:07:44.260Z,102561.92
2019-02-12T22:10:15.513Z,102554.53
2019-02-12T22:12:44.217Z,102551.20
2019-02-12T22:15:13.426Z,102553.45
2019-02-12T22:17:42.234Z,102552.14
2019-02-12T22:20:12.994Z,102548.69
2019-02-12T22:22:43.954Z,102544.09
2019-02-12T22:25:15.666Z,102550.66
2019-02-12T22:27:44.385Z,102557.39
2019-02-12T22:30:18.084Z,102564.53
2019-02-12T22:32:48.307Z,102560.64
2019-02-12T22:35:16.893Z,102575.48
2019-02-12T22:37:49.094Z,102574.59
2019-02-12T22:40:17.651Z,102571.48
2019-02-12T22:42:48.047Z,102566.66
2019-02-12T22:45:20.145Z,102577.61
2019-02-12T22:47:50.690Z,102577.21
2019-02-12T22:50:19.578Z,102582.89
2019-02-12T22:52:48.287Z,102582.41
2019-02-12T22:55:20.509Z,102579.26
2019-02-12T22:57:50.639Z,102590.16
2019-02-12T23:00:28.715Z,102587.28
2019-02-12T23:02:57.295Z,102592.06
2019-02-12T23:05:25.892Z,102595.06
2019-02-12T23:07:54.654Z,102591.14
2019-02-12T23:10:23.178Z,102594.66
2019-02-12T23:12:52.089Z,102597.80
2019-02-12T23:15:24.920Z,102587.31
2019-02-12T23:17:55.826Z,102588.80
2019-02-12T23:20:28.145Z,102592.26
2019-02-12T23:22:56.728Z,102597.21
2019-02-12T23:25:25.643Z,102598.61
2019-02-12T23:27:57.719Z,102592.19
2019-02-12T23:30:26.373Z,102587.36
2019-02-12T23:32:54.901Z,102590.48
2019-02-12T23:35:26.992Z,102588.31
2019-02-12T23:37:55.549Z,102594.47
2019-02-12T23:40:24.104Z,102586.60
2019-02-12T23:42:54.600Z,102583.18
2019-02-12T23:45:25.172Z,102579.34
2019-02-12T23:47:54.091Z,102577.12
2019-02-12T23:50:22.619Z,102576.66
2019-02-12T23:52:52.527Z,102566.63
2019-02-12T23:55:23.021Z,102558.84
2019-02-12T23:57:51.911Z,102558.48
